Decoded Metar for LTFJ (SABIHA GOKCEN in TURKEY) (IATA:N/A) | Meteo·Mobile Aviation Weather
aviador You're here:

LTFJ Decoded Metar

SABIHA GOKCEN in TURKEY
Report Time2019-01-21 23:50:00
UTC Time2019-01-22 00:06:51
Flight Rules ifr IFR
Wind040° at 13 kt
W.Decomp.*RWY 06: 11.9 kt HW 5.3 kt LCW
W.Rank040° ranks 2
Current wind is above 040° avg. (8.5)
Visibility9999 m
Phenomena:N/A
Clouds:Broken 008 Hf
Broken 030 Hf
Expected CloudBase > 800 ft AGL from Temp-Dew spread
Ceiling800 ft
Temp05°C (ISA -9)
Dew Point03°C (87% RH)
AAT-1.2°C
QNH1021 hPa
Density Alt-974 ft
Elevation322 ft
Report Wrong Elevation
Raw Report
METAR LTFJ 212350Z 04013KT 9999 BKN008 BKN030 05/03 Q1021 NOSIG RMK RWY24 04009KT=

Extra information for LTFJ:More info

Metar Taf Metar & Taf Last 4 Metars F.Rules Stats Wind Profile Meteogram Temp Stats Airport Information Weather charts Add Link Nearby VenuesMetar ALERT Operation Metar Decoded Social comments